createdAt,value
2022-07-29T00:00:41.121Z,64.63
2022-07-29T00:03:38.957Z,64.50
2022-07-29T00:06:37.804Z,64.58
2022-07-29T00:09:50.685Z,64.86
2022-07-29T00:12:49.021Z,65.03
2022-07-29T00:15:46.493Z,65.32
2022-07-29T00:18:43.977Z,65.28
2022-07-29T00:21:41.474Z,65.35
2022-07-29T00:24:38.933Z,65.34
2022-07-29T00:27:36.391Z,65.32
2022-07-29T00:30:33.884Z,65.57
2022-07-29T00:33:31.383Z,65.44
2022-07-29T00:36:28.860Z,65.30
2022-07-29T00:39:26.331Z,65.51
2022-07-29T00:42:25.163Z,65.77
2022-07-29T00:45:23.265Z,66.03
2022-07-29T00:48:20.908Z,66.21
2022-07-29T00:51:18.420Z,66.28
2022-07-29T00:54:16.350Z,66.39
2022-07-29T00:57:14.239Z,66.52
2022-07-29T01:00:12.117Z,66.49
2022-07-29T01:03:09.640Z,66.53
2022-07-29T01:06:07.147Z,66.53
2022-07-29T01:09:04.745Z,66.63
2022-07-29T01:12:02.246Z,66.89
2022-07-29T01:14:59.733Z,67.02
2022-07-29T01:17:57.250Z,66.99
2022-07-29T01:20:54.742Z,67.16
2022-07-29T01:23:52.233Z,67.23
2022-07-29T01:26:49.729Z,67.36
2022-07-29T01:29:47.229Z,67.37
2022-07-29T01:32:45.347Z,67.52
2022-07-29T01:35:42.844Z,67.64
2022-07-29T01:38:40.350Z,67.63
2022-07-29T01:41:37.874Z,67.71
2022-07-29T01:44:35.458Z,67.70
2022-07-29T01:47:32.986Z,67.75
2022-07-29T01:50:33.230Z,67.90
2022-07-29T01:53:37.747Z,68.21
2022-07-29T01:56:35.857Z,68.32
2022-07-29T01:59:33.388Z,68.42
2022-07-29T02:02:30.933Z,68.34
2022-07-29T02:05:28.503Z,68.50
2022-07-29T02:08:26.050Z,68.74
2022-07-29T02:11:23.564Z,68.83
2022-07-29T02:14:21.141Z,68.87
2022-07-29T02:17:18.646Z,68.93
2022-07-29T02:20:16.161Z,68.99
2022-07-29T02:23:13.651Z,69.15
2022-07-29T02:26:11.135Z,69.25
2022-07-29T02:29:08.852Z,69.44
2022-07-29T02:32:06.373Z,69.46
2022-07-29T02:35:03.916Z,69.53
2022-07-29T02:38:19.283Z,69.45
2022-07-29T02:41:16.798Z,69.47
2022-07-29T02:44:14.663Z,69.62
2022-07-29T02:47:12.383Z,69.72
2022-07-29T02:50:10.267Z,69.92
2022-07-29T02:53:07.763Z,70.01
2022-07-29T02:56:05.262Z,70.06
2022-07-29T02:59:02.712Z,70.20
2022-07-29T03:02:00.329Z,70.23
2022-07-29T03:04:58.189Z,70.31
2022-07-29T03:07:55.846Z,70.46
2022-07-29T03:10:53.323Z,70.62
2022-07-29T03:13:50.833Z,70.81
2022-07-29T03:16:48.370Z,70.88
2022-07-29T03:19:45.859Z,71.04
2022-07-29T03:22:44.953Z,71.23
2022-07-29T03:25:42.433Z,71.37
2022-07-29T03:28:39.874Z,71.42
2022-07-29T03:31:37.420Z,71.53
2022-07-29T03:34:35.068Z,71.60
2022-07-29T03:37:32.617Z,71.62
2022-07-29T03:40:30.109Z,71.71
2022-07-29T03:43:27.595Z,71.84
2022-07-29T03:46:25.162Z,71.91
2022-07-29T03:49:22.761Z,71.99
2022-07-29T03:52:20.434Z,72.13
2022-07-29T03:55:17.943Z,72.36
2022-07-29T03:58:15.530Z,72.56
2022-07-29T04:01:13.058Z,72.67
2022-07-29T04:04:10.552Z,72.86
2022-07-29T04:07:08.046Z,72.89
2022-07-29T04:10:05.509Z,72.93
2022-07-29T04:13:03.420Z,73.04
2022-07-29T04:16:00.957Z,73.10
2022-07-29T04:18:58.463Z,73.19
2022-07-29T04:21:55.984Z,73.28
2022-07-29T04:24:53.467Z,73.49
2022-07-29T04:28:03.001Z,73.48
2022-07-29T04:31:00.560Z,73.58
2022-07-29T04:33:58.046Z,73.56
2022-07-29T04:36:55.532Z,73.73
2022-07-29T04:39:53.040Z,73.71
2022-07-29T04:42:50.560Z,73.74
2022-07-29T04:45:48.034Z,73.98
2022-07-29T04:48:45.546Z,73.94
2022-07-29T04:51:43.031Z,73.98
2022-07-29T04:54:40.499Z,73.94
2022-07-29T04:57:37.998Z,73.95
2022-07-29T05:00:35.699Z,73.70
2022-07-29T05:03:33.147Z,73.83
2022-07-29T05:06:30.614Z,73.66
2022-07-29T05:09:28.196Z,73.43
2022-07-29T05:12:25.653Z,73.31
2022-07-29T05:15:23.100Z,73.11
2022-07-29T05:18:20.567Z,72.79
2022-07-29T05:21:23.620Z,71.87
2022-07-29T05:24:21.094Z,70.42
2022-07-29T05:27:18.574Z,69.51
2022-07-29T05:30:16.044Z,69.18
2022-07-29T05:33:36.198Z,68.53
2022-07-29T05:36:31.015Z,68.45
2022-07-29T05:39:47.197Z,67.58
2022-07-29T05:42:45.956Z,67.00
2022-07-29T05:45:50.005Z,66.06
2022-07-29T05:48:48.229Z,65.41
2022-07-29T05:51:45.774Z,65.19
2022-07-29T05:54:43.233Z,64.63
2022-07-29T05:57:40.753Z,63.89
2022-07-29T06:00:38.223Z,63.35
2022-07-29T06:03:35.665Z,63.14
2022-07-29T06:06:33.123Z,62.58
2022-07-29T06:09:30.624Z,61.97
2022-07-29T06:12:28.101Z,61.69
2022-07-29T06:15:25.561Z,61.44
2022-07-29T06:18:24.930Z,61.09
2022-07-29T06:21:22.407Z,61.14
2022-07-29T06:24:20.329Z,61.20
2022-07-29T06:27:18.480Z,61.00
2022-07-29T06:30:15.955Z,60.68
2022-07-29T06:33:13.403Z,60.34
2022-07-29T06:36:10.897Z,60.09
2022-07-29T06:39:11.605Z,59.75
2022-07-29T06:42:09.695Z,59.60
2022-07-29T06:45:09.370Z,59.20
2022-07-29T06:48:07.042Z,59.58
2022-07-29T06:51:04.764Z,59.40
2022-07-29T06:54:03.779Z,58.91
2022-07-29T06:57:01.361Z,58.51
2022-07-29T06:59:58.832Z,58.76
2022-07-29T07:02:56.413Z,58.89
2022-07-29T07:05:54.081Z,58.84
2022-07-29T07:08:51.551Z,58.87
2022-07-29T07:11:49.664Z,58.69
2022-07-29T07:14:47.787Z,58.73
2022-07-29T07:17:45.245Z,58.74
2022-07-29T07:20:42.757Z,58.75
2022-07-29T07:23:40.237Z,58.47
2022-07-29T07:26:37.709Z,58.25
2022-07-29T07:29:35.181Z,57.65
2022-07-29T07:32:32.730Z,57.31
2022-07-29T07:35:30.203Z,56.86
2022-07-29T07:38:27.703Z,56.94
2022-07-29T07:41:25.173Z,56.91
2022-07-29T07:44:23.260Z,56.76
2022-07-29T07:47:22.248Z,56.54
2022-07-29T07:50:19.860Z,55.94
2022-07-29T07:53:17.345Z,55.25
2022-07-29T07:56:14.836Z,54.99
2022-07-29T07:59:12.321Z,54.23
2022-07-29T08:02:10.307Z,52.50
2022-07-29T08:05:12.627Z,51.68
2022-07-29T08:08:10.413Z,50.77
2022-07-29T08:11:09.844Z,49.98
2022-07-29T08:14:07.583Z,49.47
2022-07-29T08:17:05.084Z,49.10
2022-07-29T08:20:02.527Z,48.47
2022-07-29T08:23:00.608Z,47.84
2022-07-29T08:25:58.106Z,46.97
2022-07-29T08:28:55.594Z,46.42
2022-07-29T08:31:53.417Z,45.61
2022-07-29T08:34:51.031Z,45.37
2022-07-29T08:37:48.560Z,45.29
2022-07-29T08:40:46.127Z,44.50
2022-07-29T08:43:43.643Z,43.98
2022-07-29T08:46:41.134Z,43.55
2022-07-29T08:49:39.282Z,43.19
2022-07-29T08:52:37.080Z,42.94
2022-07-29T08:55:34.601Z,42.71
2022-07-29T08:58:32.112Z,42.12
2022-07-29T09:01:36.448Z,41.75
2022-07-29T09:04:39.948Z,42.03
2022-07-29T09:07:37.461Z,41.92
2022-07-29T09:10:34.949Z,40.55
2022-07-29T09:13:32.446Z,39.91
2022-07-29T09:16:51.984Z,39.38
2022-07-29T09:19:47.369Z,38.80
2022-07-29T09:22:44.847Z,38.84
2022-07-29T09:25:42.342Z,38.88
2022-07-29T09:28:39.870Z,38.06
2022-07-29T09:31:37.367Z,37.53
2022-07-29T09:34:34.898Z,36.82
2022-07-29T09:37:32.381Z,37.27
2022-07-29T09:40:29.826Z,37.25
2022-07-29T09:43:27.280Z,37.60
2022-07-29T09:46:24.752Z,37.43
2022-07-29T09:49:22.386Z,37.36
2022-07-29T09:52:19.957Z,36.77
2022-07-29T09:55:18.178Z,36.67
2022-07-29T09:58:17.249Z,35.89
2022-07-29T10:01:15.255Z,34.99
2022-07-29T10:04:12.793Z,33.98
2022-07-29T10:07:10.262Z,33.27
2022-07-29T10:10:07.745Z,33.16
2022-07-29T10:13:08.985Z,33.06
2022-07-29T10:16:08.507Z,32.62
2022-07-29T10:19:06.003Z,32.27
2022-07-29T10:22:03.777Z,32.22
2022-07-29T10:25:01.658Z,32.38
2022-07-29T10:27:59.164Z,32.13
2022-07-29T10:30:56.676Z,31.00
2022-07-29T10:33:54.729Z,30.83
2022-07-29T10:36:52.310Z,30.27
2022-07-29T10:39:50.097Z,31.13
2022-07-29T10:42:47.644Z,30.92
2022-07-29T10:45:45.475Z,31.43
2022-07-29T10:48:43.664Z,31.87
2022-07-29T10:51:41.171Z,32.47
2022-07-29T10:54:42.312Z,32.46
2022-07-29T10:57:54.512Z,32.69
2022-07-29T11:00:52.363Z,33.19
2022-07-29T11:03:57.113Z,33.73
2022-07-29T11:06:54.857Z,34.14
2022-07-29T11:09:54.843Z,34.08
2022-07-29T11:12:53.411Z,34.17
2022-07-29T11:15:50.902Z,34.31
2022-07-29T11:18:48.437Z,34.63
2022-07-29T11:21:53.369Z,35.09
2022-07-29T11:25:03.059Z,34.95
2022-07-29T11:28:05.161Z,34.69
2022-07-29T11:31:02.640Z,34.85
2022-07-29T11:34:05.311Z,34.57
2022-07-29T11:37:04.058Z,33.47
2022-07-29T11:40:02.235Z,33.54
2022-07-29T11:43:00.640Z,33.48
2022-07-29T11:45:58.151Z,33.11
2022-07-29T11:48:55.669Z,32.81
2022-07-29T11:51:53.637Z,32.25
2022-07-29T11:54:58.023Z,32.44
2022-07-29T11:58:03.537Z,32.17
2022-07-29T12:01:04.173Z,32.02
2022-07-29T12:04:02.609Z,31.79
2022-07-29T12:07:00.537Z,31.51
2022-07-29T12:09:58.236Z,30.92
2022-07-29T12:12:55.760Z,30.73
2022-07-29T12:15:53.305Z,31.08
2022-07-29T12:18:50.888Z,30.78
2022-07-29T12:21:56.937Z,30.51
2022-07-29T12:25:23.208Z,30.47
2022-07-29T12:28:26.423Z,30.07
2022-07-29T12:31:43.684Z,30.24
2022-07-29T12:34:42.032Z,30.41
2022-07-29T12:37:42.553Z,30.27
2022-07-29T12:40:40.331Z,30.90
2022-07-29T12:43:37.810Z,31.26
2022-07-29T12:46:35.358Z,31.72
2022-07-29T12:49:38.088Z,32.13
2022-07-29T12:52:35.908Z,32.83
2022-07-29T12:55:33.372Z,33.44
2022-07-29T12:58:30.946Z,34.22
2022-07-29T13:01:28.495Z,34.62
2022-07-29T13:04:25.954Z,35.26
2022-07-29T13:07:55.495Z,35.57
2022-07-29T13:10:41.544Z,36.17
2022-07-29T13:13:39.021Z,36.61
2022-07-29T13:16:36.552Z,37.21
2022-07-29T13:19:34.434Z,37.88
2022-07-29T13:22:31.925Z,38.50
2022-07-29T13:25:29.405Z,39.17
2022-07-29T13:28:26.926Z,39.85
2022-07-29T13:31:24.437Z,40.18
2022-07-29T13:34:23.367Z,40.72
2022-07-29T13:37:20.820Z,41.19
2022-07-29T13:40:18.308Z,42.16
2022-07-29T13:43:15.785Z,43.32
2022-07-29T13:46:13.284Z,44.17
2022-07-29T13:49:12.382Z,45.47
2022-07-29T13:52:10.035Z,46.36
2022-07-29T13:55:07.773Z,46.71
2022-07-29T13:58:05.833Z,47.76
2022-07-29T14:01:03.365Z,49.94
2022-07-29T14:04:00.917Z,51.46
2022-07-29T14:06:58.480Z,53.01
2022-07-29T14:10:01.283Z,54.11
2022-07-29T14:12:58.771Z,56.13
2022-07-29T14:15:56.230Z,56.41
2022-07-29T14:18:53.715Z,57.50
2022-07-29T14:21:51.171Z,58.85
2022-07-29T14:24:48.962Z,59.45
2022-07-29T14:27:46.613Z,60.24
2022-07-29T14:30:44.238Z,60.75
2022-07-29T14:33:42.051Z,62.12
2022-07-29T14:36:43.701Z,63.41
2022-07-29T14:39:43.200Z,63.57
2022-07-29T14:42:41.210Z,65.09
2022-07-29T14:45:38.762Z,66.09
2022-07-29T14:48:36.263Z,67.30
2022-07-29T14:51:33.743Z,67.06
2022-07-29T14:54:31.256Z,67.88
2022-07-29T14:57:28.747Z,68.51
2022-07-29T15:00:26.225Z,68.60
2022-07-29T15:03:24.574Z,69.13
2022-07-29T15:06:22.155Z,69.65
2022-07-29T15:09:19.623Z,69.00
2022-07-29T15:12:17.134Z,69.25
2022-07-29T15:15:14.642Z,69.45
2022-07-29T15:18:12.116Z,69.11
2022-07-29T15:21:09.598Z,69.93
2022-07-29T15:24:08.290Z,69.46
2022-07-29T15:27:05.851Z,70.23
2022-07-29T15:30:03.646Z,70.74
2022-07-29T15:33:01.086Z,70.70
2022-07-29T15:35:58.582Z,70.94
2022-07-29T15:38:56.119Z,71.52
2022-07-29T15:41:53.604Z,71.13
2022-07-29T15:44:51.106Z,71.44
2022-07-29T15:47:48.600Z,71.41
2022-07-29T15:50:46.960Z,70.70
2022-07-29T15:53:44.770Z,71.27
2022-07-29T15:56:51.279Z,71.32
2022-07-29T15:59:48.732Z,71.27
2022-07-29T16:02:46.190Z,71.36
2022-07-29T16:05:43.680Z,71.42
2022-07-29T16:08:41.153Z,71.58
2022-07-29T16:11:38.697Z,71.14
2022-07-29T16:14:36.223Z,70.83
2022-07-29T16:17:35.362Z,70.64
2022-07-29T16:20:32.905Z,70.00
2022-07-29T16:23:30.439Z,70.24
2022-07-29T16:26:27.936Z,69.58
2022-07-29T16:29:25.418Z,70.26
2022-07-29T16:32:22.909Z,71.26
2022-07-29T16:35:20.385Z,70.68
2022-07-29T16:38:17.899Z,70.75
2022-07-29T16:41:15.360Z,70.71
2022-07-29T16:44:12.845Z,70.97
2022-07-29T16:47:10.300Z,70.46
2022-07-29T16:50:07.783Z,70.51
2022-07-29T16:53:05.237Z,71.66
2022-07-29T16:56:02.690Z,70.66
2022-07-29T16:59:00.161Z,70.86
2022-07-29T17:01:58.007Z,70.86
2022-07-29T17:04:57.170Z,71.51
2022-07-29T17:07:54.648Z,71.32
2022-07-29T17:10:52.413Z,71.44
2022-07-29T17:13:49.949Z,70.76
2022-07-29T17:16:51.648Z,70.87
2022-07-29T17:19:57.742Z,71.59
2022-07-29T17:22:55.223Z,71.73
2022-07-29T17:25:53.970Z,72.41
2022-07-29T17:28:51.426Z,73.00
2022-07-29T17:31:49.011Z,73.74
2022-07-29T17:34:46.532Z,73.63
2022-07-29T17:37:43.992Z,74.12
2022-07-29T17:40:41.481Z,74.29
2022-07-29T17:43:38.931Z,74.67
2022-07-29T17:46:37.224Z,75.08
2022-07-29T17:49:36.331Z,75.42
2022-07-29T17:52:34.969Z,75.72
2022-07-29T17:55:32.444Z,76.04
2022-07-29T17:58:29.912Z,76.60
2022-07-29T18:01:27.420Z,76.63
2022-07-29T18:04:25.175Z,76.76
2022-07-29T18:07:22.740Z,76.82
2022-07-29T18:10:20.201Z,76.99
2022-07-29T18:13:17.988Z,77.33
2022-07-29T18:16:15.611Z,77.62
2022-07-29T18:19:13.112Z,77.90
2022-07-29T18:22:13.325Z,78.12
2022-07-29T18:25:12.112Z,78.43
2022-07-29T18:28:09.577Z,78.62
2022-07-29T18:31:07.078Z,78.53
2022-07-29T18:34:04.560Z,78.88
2022-07-29T18:37:02.086Z,79.03
2022-07-29T18:39:59.706Z,79.28
2022-07-29T18:42:57.215Z,79.45
2022-07-29T18:45:54.704Z,79.65
2022-07-29T18:48:52.213Z,79.80
2022-07-29T18:51:49.724Z,79.85
2022-07-29T18:54:47.174Z,79.88
2022-07-29T18:57:54.959Z,80.11
2022-07-29T19:00:54.349Z,80.26
2022-07-29T19:03:51.849Z,80.41
2022-07-29T19:06:49.325Z,80.52
2022-07-29T19:09:49.379Z,80.61
2022-07-29T19:12:47.102Z,80.73
2022-07-29T19:15:45.721Z,80.82
2022-07-29T19:18:44.840Z,81.03
2022-07-29T19:21:42.299Z,81.17
2022-07-29T19:24:39.789Z,81.38
2022-07-29T19:27:37.290Z,81.50
2022-07-29T19:30:34.867Z,81.57
2022-07-29T19:33:32.350Z,81.60
2022-07-29T19:36:31.448Z,81.85
2022-07-29T19:39:35.060Z,81.95
2022-07-29T19:42:33.220Z,82.02
2022-07-29T19:45:30.682Z,82.00
2022-07-29T19:48:28.135Z,82.28
2022-07-29T19:51:25.597Z,82.41
2022-07-29T19:54:23.309Z,82.62
2022-07-29T19:57:20.783Z,82.64
2022-07-29T20:00:18.321Z,82.62
2022-07-29T20:03:18.782Z,82.84
2022-07-29T20:06:16.273Z,83.07
2022-07-29T20:09:20.740Z,83.22
2022-07-29T20:12:18.451Z,83.31
2022-07-29T20:15:16.333Z,83.36
2022-07-29T20:18:15.791Z,83.48
2022-07-29T20:21:13.272Z,83.54
2022-07-29T20:24:10.799Z,83.45
2022-07-29T20:27:13.567Z,83.65
2022-07-29T20:30:13.516Z,83.64
2022-07-29T20:33:11.778Z,83.68
2022-07-29T20:36:09.236Z,83.66
2022-07-29T20:39:06.694Z,83.77
2022-07-29T20:42:04.210Z,83.66
2022-07-29T20:45:05.434Z,83.80
2022-07-29T20:48:05.927Z,83.91
2022-07-29T20:51:06.002Z,83.87
2022-07-29T20:54:03.796Z,83.92
2022-07-29T20:57:01.587Z,84.06
2022-07-29T20:59:59.315Z,84.06
2022-07-29T21:02:56.966Z,84.03
2022-07-29T21:05:54.550Z,84.20
2022-07-29T21:08:52.016Z,84.34
2022-07-29T21:11:49.577Z,84.43
2022-07-29T21:14:49.931Z,84.49
2022-07-29T21:17:48.058Z,84.54
2022-07-29T21:20:45.540Z,84.48
2022-07-29T21:23:43.056Z,84.35
2022-07-29T21:26:40.517Z,84.34
2022-07-29T21:29:38.002Z,84.32
2022-07-29T21:32:35.533Z,84.36
2022-07-29T21:36:06.612Z,84.17
2022-07-29T21:38:50.539Z,84.18
2022-07-29T21:41:48.061Z,84.14
2022-07-29T21:44:45.534Z,84.13
2022-07-29T21:47:43.005Z,84.15
2022-07-29T21:50:40.484Z,83.85
2022-07-29T21:53:37.959Z,83.73
2022-07-29T21:56:37.436Z,83.88
2022-07-29T21:59:34.914Z,83.79
2022-07-29T22:02:32.377Z,83.66
2022-07-29T22:05:29.874Z,83.57
2022-07-29T22:08:27.369Z,83.55
2022-07-29T22:11:24.834Z,83.74
2022-07-29T22:14:22.433Z,83.84
2022-07-29T22:17:20.517Z,83.79
2022-07-29T22:20:18.056Z,83.95
2022-07-29T22:23:15.538Z,83.93
2022-07-29T22:26:13.023Z,83.97
2022-07-29T22:29:11.776Z,84.05
2022-07-29T22:32:09.236Z,84.07
2022-07-29T22:35:06.711Z,83.96
2022-07-29T22:38:04.188Z,84.02
2022-07-29T22:41:01.712Z,84.14
2022-07-29T22:44:00.967Z,84.27
2022-07-29T22:46:58.648Z,84.34
2022-07-29T22:49:56.566Z,84.40
2022-07-29T22:52:54.015Z,84.52
2022-07-29T22:55:51.485Z,84.59
2022-07-29T22:58:49.254Z,84.53
2022-07-29T23:01:46.725Z,84.56
2022-07-29T23:04:44.195Z,84.44
2022-07-29T23:07:41.709Z,84.39
2022-07-29T23:10:39.201Z,84.35
2022-07-29T23:13:36.942Z,84.43
2022-07-29T23:16:34.437Z,84.15
2022-07-29T23:19:31.934Z,84.17
2022-07-29T23:22:29.495Z,84.13
2022-07-29T23:25:26.970Z,84.03
2022-07-29T23:28:24.475Z,83.57
2022-07-29T23:31:21.994Z,83.59
2022-07-29T23:34:19.465Z,83.26
2022-07-29T23:37:16.947Z,83.02
2022-07-29T23:40:14.945Z,83.01
2022-07-29T23:43:12.535Z,82.65
2022-07-29T23:46:10.034Z,82.79
2022-07-29T23:49:08.012Z,82.79
2022-07-29T23:52:05.618Z,82.75
2022-07-29T23:55:36.454Z,82.76
2022-07-29T23:58:20.587Z,82.85
